createdAt,value
2022-08-26T00:01:58.821Z,23.70
2022-08-26T00:04:29.072Z,23.70
2022-08-26T00:06:57.462Z,23.60
2022-08-26T00:09:26.633Z,23.60
2022-08-26T00:11:55.643Z,23.60
2022-08-26T00:14:29.556Z,23.50
2022-08-26T00:17:00.471Z,23.50
2022-08-26T00:19:28.809Z,23.50
2022-08-26T00:21:56.756Z,23.40
2022-08-26T00:24:24.817Z,23.40
2022-08-26T00:26:53.727Z,23.40
2022-08-26T00:29:22.402Z,23.30
2022-08-26T00:31:50.713Z,23.30
2022-08-26T00:34:20.162Z,23.30
2022-08-26T00:36:51.721Z,23.30
2022-08-26T00:39:20.200Z,23.20
2022-08-26T00:41:49.063Z,23.20
2022-08-26T00:44:17.938Z,23.20
2022-08-26T00:46:49.763Z,23.20
2022-08-26T00:49:29.514Z,23.10
2022-08-26T00:51:59.962Z,23.10
2022-08-26T00:54:34.305Z,23.10
2022-08-26T00:57:15.834Z,23.10
2022-08-26T00:59:46.525Z,23.00
2022-08-26T01:02:20.850Z,23.00
2022-08-26T01:04:55.842Z,23.00
2022-08-26T01:07:25.566Z,23.00
2022-08-26T01:09:53.881Z,22.90
2022-08-26T01:12:22.831Z,22.90
2022-08-26T01:14:51.151Z,22.90
2022-08-26T01:17:19.337Z,22.90
2022-08-26T01:19:49.802Z,22.90
2022-08-26T01:22:21.843Z,22.90
2022-08-26T01:24:56.108Z,22.80
2022-08-26T01:27:24.399Z,22.80
2022-08-26T01:29:52.826Z,22.70
2022-08-26T01:32:23.433Z,22.70
2022-08-26T01:34:51.833Z,22.70
2022-08-26T01:37:22.958Z,22.70
2022-08-26T01:39:53.348Z,22.70
2022-08-26T01:42:25.866Z,22.60
2022-08-26T01:44:57.264Z,22.60
2022-08-26T01:47:29.935Z,22.60
2022-08-26T01:50:00.737Z,22.60
2022-08-26T01:52:31.303Z,22.60
2022-08-26T01:55:00.771Z,22.60
2022-08-26T01:57:30.498Z,22.60
2022-08-26T02:00:02.260Z,22.50
2022-08-26T02:02:30.605Z,22.50
2022-08-26T02:05:01.248Z,22.50
2022-08-26T02:07:29.655Z,22.40
2022-08-26T02:09:57.858Z,22.40
2022-08-26T02:12:27.362Z,22.30
2022-08-26T02:15:01.593Z,22.30
2022-08-26T02:17:38.625Z,22.30
2022-08-26T02:20:13.379Z,22.30
2022-08-26T02:22:45.127Z,22.20
2022-08-26T02:25:19.090Z,22.20
2022-08-26T02:27:48.310Z,22.20
2022-08-26T02:30:20.072Z,22.20
2022-08-26T02:32:49.603Z,22.20
2022-08-26T02:35:20.294Z,22.10
2022-08-26T02:37:49.427Z,22.10
2022-08-26T02:40:21.393Z,22.10
2022-08-26T02:42:49.801Z,22.10
2022-08-26T02:45:22.980Z,22.10
2022-08-26T02:47:52.374Z,22.10
2022-08-26T02:50:20.621Z,22.00
2022-08-26T02:52:49.224Z,22.00
2022-08-26T02:55:18.325Z,21.90
2022-08-26T02:57:46.694Z,21.90
2022-08-26T03:00:15.782Z,21.90
2022-08-26T03:02:45.240Z,21.90
2022-08-26T03:05:13.954Z,21.80
2022-08-26T03:07:43.864Z,21.80
2022-08-26T03:10:13.554Z,21.80
2022-08-26T03:12:42.934Z,21.70
2022-08-26T03:15:17.908Z,21.70
2022-08-26T03:17:49.030Z,21.70
2022-08-26T03:20:19.213Z,21.70
2022-08-26T03:22:47.151Z,21.70
2022-08-26T03:25:18.139Z,21.70
2022-08-26T03:27:46.359Z,21.60
2022-08-26T03:30:33.707Z,21.60
2022-08-26T03:33:04.141Z,21.60
2022-08-26T03:35:32.698Z,21.60
2022-08-26T03:38:01.417Z,21.60
2022-08-26T03:40:30.110Z,21.60
2022-08-26T03:42:58.497Z,21.50
2022-08-26T03:45:28.182Z,21.50
2022-08-26T03:47:56.103Z,21.50
2022-08-26T03:50:28.220Z,21.50
2022-08-26T03:52:57.154Z,21.50
2022-08-26T03:55:27.354Z,21.40
2022-08-26T03:57:55.839Z,21.40
2022-08-26T04:00:23.903Z,21.40
2022-08-26T04:02:53.366Z,21.40
2022-08-26T04:05:22.959Z,21.40
2022-08-26T04:07:52.340Z,21.40
2022-08-26T04:10:29.247Z,21.30
2022-08-26T04:12:58.957Z,21.40
2022-08-26T04:15:27.993Z,21.30
2022-08-26T04:17:57.513Z,21.30
2022-08-26T04:20:25.723Z,21.30
2022-08-26T04:22:55.044Z,21.20
2022-08-26T04:25:24.203Z,21.20
2022-08-26T04:27:52.382Z,21.20
2022-08-26T04:30:21.189Z,21.20
2022-08-26T04:32:49.544Z,21.20
2022-08-26T04:35:17.706Z,21.10
2022-08-26T04:37:45.725Z,21.10
2022-08-26T04:40:15.201Z,21.10
2022-08-26T04:42:43.125Z,21.10
2022-08-26T04:45:11.879Z,21.10
2022-08-26T04:47:39.881Z,21.10
2022-08-26T04:50:09.393Z,21.10
2022-08-26T04:52:38.910Z,21.10
2022-08-26T04:55:08.598Z,21.10
2022-08-26T04:57:38.044Z,21.00
2022-08-26T05:00:10.351Z,21.00
2022-08-26T05:02:39.403Z,21.00
2022-08-26T05:05:08.711Z,21.00
2022-08-26T05:07:36.782Z,21.00
2022-08-26T05:10:08.798Z,20.90
2022-08-26T05:12:38.229Z,20.90
2022-08-26T05:15:07.833Z,20.90
2022-08-26T05:17:36.368Z,20.90
2022-08-26T05:20:05.289Z,20.90
2022-08-26T05:22:34.458Z,20.90
2022-08-26T05:25:02.551Z,20.80
2022-08-26T05:27:30.395Z,20.80
2022-08-26T05:29:59.894Z,20.90
2022-08-26T05:32:29.135Z,20.80
2022-08-26T05:34:57.500Z,20.80
2022-08-26T05:37:26.516Z,20.80
2022-08-26T05:39:54.468Z,20.80
2022-08-26T05:42:22.549Z,20.80
2022-08-26T05:44:55.487Z,20.80
2022-08-26T05:47:26.161Z,20.80
2022-08-26T05:49:54.414Z,20.80
2022-08-26T05:52:24.667Z,20.80
2022-08-26T05:54:54.332Z,20.80
2022-08-26T05:57:23.167Z,20.80
2022-08-26T05:59:52.215Z,20.80
2022-08-26T06:02:20.684Z,20.80
2022-08-26T06:04:50.179Z,20.80
2022-08-26T06:07:40.018Z,20.80
2022-08-26T06:10:30.927Z,20.80
2022-08-26T06:12:57.397Z,20.80
2022-08-26T06:15:25.937Z,20.80
2022-08-26T06:17:54.107Z,20.80
2022-08-26T06:20:23.409Z,20.80
2022-08-26T06:23:09.139Z,20.90
2022-08-26T06:25:39.651Z,20.90
2022-08-26T06:28:08.213Z,20.90
2022-08-26T06:30:41.432Z,20.90
2022-08-26T06:33:10.353Z,20.90
2022-08-26T06:35:42.298Z,20.90
2022-08-26T06:38:10.990Z,20.90
2022-08-26T06:40:42.148Z,20.90
2022-08-26T06:43:11.230Z,20.90
2022-08-26T06:45:39.513Z,21.00
2022-08-26T06:48:09.295Z,21.00
2022-08-26T06:50:38.076Z,21.00
2022-08-26T06:53:08.065Z,21.00
2022-08-26T06:55:40.972Z,21.00
2022-08-26T06:58:09.413Z,21.10
2022-08-26T07:00:37.478Z,21.10
2022-08-26T07:03:07.704Z,21.10
2022-08-26T07:05:36.094Z,21.20
2022-08-26T07:08:05.487Z,21.10
2022-08-26T07:10:35.217Z,21.20
2022-08-26T07:13:04.131Z,21.20
2022-08-26T07:15:35.727Z,21.30
2022-08-26T07:18:05.361Z,21.30
2022-08-26T07:20:33.342Z,21.40
2022-08-26T07:23:01.287Z,21.40
2022-08-26T07:25:29.690Z,21.40
2022-08-26T07:27:58.927Z,21.50
2022-08-26T07:30:26.835Z,21.50
2022-08-26T07:32:57.658Z,21.50
2022-08-26T07:35:26.654Z,21.60
2022-08-26T07:37:57.021Z,21.60
2022-08-26T07:40:26.626Z,21.70
2022-08-26T07:42:54.624Z,21.80
2022-08-26T07:45:24.243Z,21.80
2022-08-26T07:47:52.768Z,21.90
2022-08-26T07:50:22.309Z,22.00
2022-08-26T07:53:10.837Z,22.00
2022-08-26T07:55:39.028Z,22.10
2022-08-26T07:58:07.395Z,22.10
2022-08-26T08:00:36.744Z,22.20
2022-08-26T08:03:06.060Z,22.20
2022-08-26T08:05:34.679Z,22.30
2022-08-26T08:08:27.077Z,22.40
2022-08-26T08:10:53.231Z,22.40
2022-08-26T08:13:21.283Z,22.50
2022-08-26T08:15:50.578Z,22.50
2022-08-26T08:18:20.569Z,22.60
2022-08-26T08:20:59.111Z,22.60
2022-08-26T08:23:33.509Z,22.70
2022-08-26T08:26:02.494Z,22.80
2022-08-26T08:28:30.770Z,22.80
2022-08-26T08:31:00.278Z,22.90
2022-08-26T08:33:30.076Z,22.90
2022-08-26T08:35:57.964Z,23.00
2022-08-26T08:38:26.185Z,23.00
2022-08-26T08:40:54.472Z,23.10
2022-08-26T08:43:37.613Z,23.10
2022-08-26T08:46:11.948Z,23.20
2022-08-26T08:48:44.451Z,23.20
2022-08-26T08:51:24.134Z,23.30
2022-08-26T08:53:55.059Z,23.30
2022-08-26T08:56:25.572Z,23.30
2022-08-26T08:59:01.273Z,23.40
2022-08-26T09:01:39.354Z,23.50
2022-08-26T09:04:20.554Z,23.50
2022-08-26T09:06:52.650Z,23.50
2022-08-26T09:09:25.069Z,23.60
2022-08-26T09:11:54.472Z,23.70
2022-08-26T09:14:22.893Z,23.70
2022-08-26T09:17:00.564Z,23.80
2022-08-26T09:19:38.417Z,23.90
2022-08-26T09:22:09.369Z,23.90
2022-08-26T09:24:41.796Z,24.00
2022-08-26T09:27:11.445Z,24.00
2022-08-26T09:29:44.260Z,24.10
2022-08-26T09:32:22.012Z,24.20
2022-08-26T09:34:56.886Z,24.30
2022-08-26T09:37:37.495Z,24.30
2022-08-26T09:40:23.531Z,24.40
2022-08-26T09:43:22.186Z,24.50
2022-08-26T09:45:58.492Z,24.50
2022-08-26T09:48:35.546Z,24.60
2022-08-26T09:51:07.154Z,24.80
2022-08-26T09:53:50.324Z,24.80
2022-08-26T09:56:27.678Z,24.80
2022-08-26T09:58:56.905Z,24.90
2022-08-26T10:01:32.213Z,25.10
2022-08-26T10:04:12.394Z,25.20
2022-08-26T10:06:42.545Z,25.20
2022-08-26T10:09:14.753Z,25.30
2022-08-26T10:11:47.922Z,25.40
2022-08-26T10:14:24.387Z,25.50
2022-08-26T10:16:59.899Z,25.50
2022-08-26T10:19:55.621Z,25.50
2022-08-26T10:22:41.559Z,25.60
2022-08-26T10:25:16.484Z,25.80
2022-08-26T10:27:53.400Z,25.80
2022-08-26T10:30:24.588Z,25.90
2022-08-26T10:32:54.374Z,25.90
2022-08-26T10:35:24.382Z,25.90
2022-08-26T10:37:56.384Z,26.00
2022-08-26T10:40:27.280Z,26.10
2022-08-26T10:42:59.360Z,26.20
2022-08-26T10:45:30.145Z,26.30
2022-08-26T10:48:01.802Z,26.40
2022-08-26T10:50:35.002Z,26.50
2022-08-26T10:53:09.206Z,26.50
2022-08-26T10:55:43.776Z,26.60
2022-08-26T10:58:28.922Z,26.60
2022-08-26T11:01:23.644Z,26.70
2022-08-26T11:04:00.294Z,26.70
2022-08-26T11:06:32.716Z,26.90
2022-08-26T11:09:03.340Z,26.90
2022-08-26T11:11:47.891Z,27.00
2022-08-26T11:14:53.314Z,27.10
2022-08-26T11:18:00.259Z,27.20
2022-08-26T11:20:39.132Z,27.20
2022-08-26T11:23:50.460Z,27.40
2022-08-26T11:26:36.369Z,27.60
2022-08-26T11:29:13.217Z,27.60
2022-08-26T11:31:56.715Z,27.70
2022-08-26T11:34:54.032Z,27.80
2022-08-26T11:37:26.033Z,27.90
2022-08-26T11:39:57.258Z,28.00
2022-08-26T11:42:33.120Z,28.10
2022-08-26T11:45:05.382Z,28.20
2022-08-26T11:47:33.952Z,28.20
2022-08-26T11:50:09.871Z,28.20
2022-08-26T11:52:38.490Z,28.40
2022-08-26T11:55:10.079Z,28.50
2022-08-26T11:57:45.695Z,28.50
2022-08-26T12:00:22.424Z,28.60
2022-08-26T12:02:52.447Z,28.70
2022-08-26T12:05:25.148Z,28.80
2022-08-26T12:07:55.474Z,28.80
2022-08-26T12:10:30.840Z,29.10
2022-08-26T12:13:00.412Z,29.20
2022-08-26T12:15:30.756Z,29.20
2022-08-26T12:18:00.276Z,29.20
2022-08-26T12:20:46.037Z,29.20
2022-08-26T12:23:32.117Z,29.30
2022-08-26T12:26:08.322Z,29.20
2022-08-26T12:28:44.788Z,29.30
2022-08-26T12:31:12.981Z,29.30
2022-08-26T12:33:45.422Z,29.30
2022-08-26T12:36:13.753Z,29.40
2022-08-26T12:38:41.683Z,29.40
2022-08-26T12:41:10.920Z,29.50
2022-08-26T12:43:42.087Z,29.60
2022-08-26T12:46:13.068Z,29.80
2022-08-26T12:48:44.117Z,29.80
2022-08-26T12:51:22.679Z,29.90
2022-08-26T12:53:50.885Z,29.90
2022-08-26T12:56:27.492Z,29.90
2022-08-26T12:59:07.543Z,30.10
2022-08-26T13:01:44.054Z,30.10
2022-08-26T13:04:35.039Z,30.10
2022-08-26T13:07:21.075Z,30.10
2022-08-26T13:09:50.112Z,30.00
2022-08-26T13:12:28.123Z,30.00
2022-08-26T13:14:56.349Z,30.10
2022-08-26T13:17:24.282Z,30.10
2022-08-26T13:19:52.195Z,30.10
2022-08-26T13:22:24.204Z,30.10
2022-08-26T13:24:55.172Z,30.10
2022-08-26T13:27:26.520Z,30.20
2022-08-26T13:29:54.987Z,30.20
2022-08-26T13:32:27.727Z,30.30
2022-08-26T13:34:57.413Z,30.30
2022-08-26T13:37:35.241Z,30.20
2022-08-26T13:40:04.938Z,30.30
2022-08-26T13:42:34.591Z,30.30
2022-08-26T13:45:02.752Z,30.40
2022-08-26T13:47:30.683Z,30.40
2022-08-26T13:49:58.649Z,30.40
2022-08-26T13:52:30.546Z,30.50
2022-08-26T13:55:00.111Z,30.50
2022-08-26T13:57:28.514Z,30.70
2022-08-26T13:59:59.246Z,30.70
2022-08-26T14:02:28.254Z,30.70
2022-08-26T14:04:56.350Z,30.80
2022-08-26T14:07:24.344Z,31.00
2022-08-26T14:09:52.290Z,31.00
2022-08-26T14:12:20.406Z,31.10
2022-08-26T14:14:48.346Z,31.20
2022-08-26T14:17:21.157Z,31.20
2022-08-26T14:19:50.435Z,31.30
2022-08-26T14:22:20.280Z,31.30
2022-08-26T14:24:48.233Z,31.30
2022-08-26T14:27:16.354Z,31.30
2022-08-26T14:29:44.232Z,31.20
2022-08-26T14:32:23.290Z,31.20
2022-08-26T14:34:51.733Z,31.40
2022-08-26T14:37:19.729Z,31.30
2022-08-26T14:39:48.351Z,31.40
2022-08-26T14:42:20.757Z,31.60
2022-08-26T14:44:52.859Z,31.60
2022-08-26T14:47:22.132Z,31.60
2022-08-26T14:49:50.310Z,31.60
2022-08-26T14:52:18.420Z,31.70
2022-08-26T14:54:45.383Z,31.80
2022-08-26T14:57:14.645Z,31.80
2022-08-26T14:59:45.492Z,31.90
2022-08-26T15:02:27.697Z,32.00
2022-08-26T15:05:02.984Z,32.00
2022-08-26T15:07:31.022Z,32.00
2022-08-26T15:09:58.913Z,32.10
2022-08-26T15:12:27.755Z,32.20
2022-08-26T15:14:55.645Z,32.20
2022-08-26T15:17:23.623Z,32.20
2022-08-26T15:19:51.622Z,32.20
2022-08-26T15:22:20.972Z,32.20
2022-08-26T15:24:51.837Z,32.20
2022-08-26T15:27:22.041Z,32.10
2022-08-26T15:29:50.125Z,31.90
2022-08-26T15:32:18.030Z,31.80
2022-08-26T15:34:45.984Z,31.70
2022-08-26T15:37:13.979Z,31.70
2022-08-26T15:39:44.090Z,31.60
2022-08-26T15:42:12.046Z,31.50
2022-08-26T15:44:44.114Z,31.50
2022-08-26T15:47:12.778Z,31.40
2022-08-26T15:49:41.243Z,31.40
2022-08-26T15:52:09.568Z,31.20
2022-08-26T15:54:37.565Z,31.00
2022-08-26T15:57:09.455Z,30.80
2022-08-26T15:59:39.369Z,30.50
2022-08-26T16:02:07.347Z,30.30
2022-08-26T16:04:35.317Z,29.70
2022-08-26T16:07:03.619Z,29.30
2022-08-26T16:09:31.483Z,28.90
2022-08-26T16:11:59.684Z,28.60
2022-08-26T16:14:28.921Z,28.50
2022-08-26T16:16:57.427Z,28.30
2022-08-26T16:19:25.486Z,28.30
2022-08-26T16:21:53.438Z,28.20
2022-08-26T16:24:24.867Z,28.00
2022-08-26T16:26:54.466Z,28.00
2022-08-26T16:29:22.370Z,27.80
2022-08-26T16:31:53.197Z,27.70
2022-08-26T16:34:21.348Z,27.60
2022-08-26T16:36:49.206Z,27.50
2022-08-26T16:39:17.122Z,27.40
2022-08-26T16:41:45.229Z,27.30
2022-08-26T16:44:13.113Z,27.20
2022-08-26T16:46:41.021Z,27.10
2022-08-26T16:49:10.330Z,26.80
2022-08-26T16:51:38.572Z,26.60
2022-08-26T16:54:08.144Z,26.50
2022-08-26T16:56:36.552Z,26.40
2022-08-26T16:59:05.974Z,26.40
2022-08-26T17:01:34.012Z,26.30
2022-08-26T17:04:01.920Z,26.20
2022-08-26T17:06:31.258Z,26.20
2022-08-26T17:08:59.177Z,26.30
2022-08-26T17:11:27.109Z,26.30
2022-08-26T17:13:54.994Z,26.20
2022-08-26T17:16:26.695Z,26.20
2022-08-26T17:18:56.457Z,26.20
2022-08-26T17:21:25.094Z,26.20
2022-08-26T17:23:54.978Z,26.10
2022-08-26T17:26:22.868Z,26.00
2022-08-26T17:28:51.098Z,26.00
2022-08-26T17:31:19.235Z,25.90
2022-08-26T17:33:53.254Z,25.90
2022-08-26T17:36:21.676Z,25.90
2022-08-26T17:38:50.388Z,25.80
2022-08-26T17:41:23.554Z,25.80
2022-08-26T17:43:52.430Z,25.80
2022-08-26T17:46:20.498Z,25.70
2022-08-26T17:48:48.788Z,25.70
2022-08-26T17:51:19.202Z,25.70
2022-08-26T17:53:47.753Z,25.70
2022-08-26T17:56:19.139Z,25.60
2022-08-26T17:58:51.670Z,25.60
2022-08-26T18:01:19.966Z,25.50
2022-08-26T18:03:48.040Z,25.50
2022-08-26T18:06:16.451Z,25.40
2022-08-26T18:08:44.874Z,25.40
2022-08-26T18:11:14.551Z,25.30
2022-08-26T18:13:45.842Z,25.30
2022-08-26T18:16:18.743Z,25.20
2022-08-26T18:18:47.665Z,25.20
2022-08-26T18:21:17.960Z,25.20
2022-08-26T18:23:46.863Z,25.20
2022-08-26T18:26:18.807Z,25.10
2022-08-26T18:28:46.782Z,25.10
2022-08-26T18:31:16.377Z,25.10
2022-08-26T18:33:44.324Z,25.00
2022-08-26T18:36:18.367Z,25.00
2022-08-26T18:38:46.898Z,24.90
2022-08-26T18:41:14.930Z,24.80
2022-08-26T18:43:43.094Z,24.90
2022-08-26T18:46:11.706Z,24.80
2022-08-26T18:48:42.018Z,24.80
2022-08-26T18:51:16.527Z,24.80
2022-08-26T18:53:44.396Z,24.70
2022-08-26T18:56:14.252Z,24.70
2022-08-26T18:58:44.557Z,24.70
2022-08-26T19:01:13.101Z,24.70
2022-08-26T19:03:42.926Z,24.70
2022-08-26T19:06:15.062Z,24.70
2022-08-26T19:08:44.793Z,24.60
2022-08-26T19:11:13.866Z,24.60
2022-08-26T19:13:42.264Z,24.50
2022-08-26T19:16:18.907Z,24.50
2022-08-26T19:18:48.827Z,24.50
2022-08-26T19:21:16.785Z,24.50
2022-08-26T19:23:44.649Z,24.40
2022-08-26T19:26:13.729Z,24.40
2022-08-26T19:28:42.105Z,24.40
2022-08-26T19:31:11.462Z,24.40
2022-08-26T19:33:41.690Z,24.30
2022-08-26T19:36:15.374Z,24.30
2022-08-26T19:38:43.719Z,24.30
2022-08-26T19:41:13.529Z,24.30
2022-08-26T19:43:41.411Z,24.30
2022-08-26T19:46:13.799Z,24.30
2022-08-26T19:48:43.982Z,24.20
2022-08-26T19:51:15.644Z,24.20
2022-08-26T19:53:43.811Z,24.10
2022-08-26T19:56:12.423Z,24.10
2022-08-26T19:58:40.781Z,24.10
2022-08-26T20:01:09.753Z,24.10
2022-08-26T20:03:38.715Z,24.00
2022-08-26T20:06:08.258Z,24.00
2022-08-26T20:08:40.063Z,24.00
2022-08-26T20:11:11.823Z,24.00
2022-08-26T20:13:40.870Z,24.00
2022-08-26T20:16:10.241Z,23.90
2022-08-26T20:18:56.120Z,23.90
2022-08-26T20:21:31.484Z,23.90
2022-08-26T20:24:03.439Z,23.90
2022-08-26T20:26:32.940Z,23.90
2022-08-26T20:29:01.254Z,23.80
2022-08-26T20:31:29.953Z,23.80
2022-08-26T20:33:58.217Z,23.80
2022-08-26T20:36:27.750Z,23.70
2022-08-26T20:38:56.607Z,23.70
2022-08-26T20:41:26.336Z,23.70
2022-08-26T20:43:54.286Z,23.70
2022-08-26T20:46:24.924Z,23.70
2022-08-26T20:48:53.765Z,23.70
2022-08-26T20:51:23.463Z,23.60
2022-08-26T20:53:52.004Z,23.60
2022-08-26T20:56:23.641Z,23.60
2022-08-26T20:58:54.193Z,23.60
2022-08-26T21:01:25.191Z,23.50
2022-08-26T21:03:53.763Z,23.50
2022-08-26T21:06:21.734Z,23.50
2022-08-26T21:08:51.401Z,23.50
2022-08-26T21:11:21.106Z,23.50
2022-08-26T21:14:04.386Z,23.50
2022-08-26T21:16:37.142Z,23.50
2022-08-26T21:19:06.055Z,23.50
2022-08-26T21:21:34.504Z,23.50
2022-08-26T21:24:03.140Z,23.50
2022-08-26T21:26:31.156Z,23.50
2022-08-26T21:28:59.316Z,23.40
2022-08-26T21:31:27.215Z,23.40
2022-08-26T21:33:57.647Z,23.40
2022-08-26T21:36:26.445Z,23.40
2022-08-26T21:38:56.329Z,23.40
2022-08-26T21:41:24.784Z,23.40
2022-08-26T21:43:54.584Z,23.40
2022-08-26T21:46:25.096Z,23.30
2022-08-26T21:48:57.183Z,23.30
2022-08-26T21:51:28.021Z,23.30
2022-08-26T21:53:56.634Z,23.30
2022-08-26T21:56:26.166Z,23.20
2022-08-26T21:58:55.563Z,23.20
2022-08-26T22:01:27.267Z,23.30
2022-08-26T22:03:56.541Z,23.20
2022-08-26T22:06:27.098Z,23.20
2022-08-26T22:08:55.803Z,23.10
2022-08-26T22:11:24.342Z,23.10
2022-08-26T22:13:52.937Z,23.10
2022-08-26T22:16:21.038Z,23.00
2022-08-26T22:18:48.977Z,23.00
2022-08-26T22:21:20.163Z,23.00
2022-08-26T22:23:48.451Z,23.00
2022-08-26T22:26:25.305Z,23.00
2022-08-26T22:28:58.650Z,23.00
2022-08-26T22:31:35.279Z,23.00
2022-08-26T22:34:07.352Z,23.00
2022-08-26T22:36:43.213Z,23.00
2022-08-26T22:39:13.335Z,23.00
2022-08-26T22:41:41.953Z,22.90
2022-08-26T22:44:10.477Z,23.00
2022-08-26T22:46:38.613Z,22.90
2022-08-26T22:49:06.778Z,22.90
2022-08-26T22:51:35.946Z,22.90
2022-08-26T22:54:03.794Z,22.90
2022-08-26T22:56:31.675Z,22.90
2022-08-26T22:58:59.598Z,22.80
2022-08-26T23:01:27.755Z,22.80
2022-08-26T23:03:55.684Z,22.80
2022-08-26T23:06:23.574Z,22.80
2022-08-26T23:08:53.085Z,22.80
2022-08-26T23:11:20.983Z,22.80
2022-08-26T23:13:48.906Z,22.80
2022-08-26T23:16:16.804Z,22.70
2022-08-26T23:18:44.721Z,22.70
2022-08-26T23:21:12.703Z,22.80
2022-08-26T23:23:40.631Z,22.70
2022-08-26T23:26:09.915Z,22.70
2022-08-26T23:28:39.545Z,22.70
2022-08-26T23:31:08.327Z,22.70
2022-08-26T23:33:53.713Z,22.70
2022-08-26T23:36:22.540Z,22.70
2022-08-26T23:38:52.968Z,22.70
2022-08-26T23:41:24.050Z,22.60
2022-08-26T23:43:52.458Z,22.60
2022-08-26T23:46:20.865Z,22.60
2022-08-26T23:48:49.349Z,22.60
2022-08-26T23:51:34.963Z,22.60
2022-08-26T23:54:03.145Z,22.60
2022-08-26T23:56:32.361Z,22.60
2022-08-26T23:59:00.650Z,22.50
